createdAt,value
2018-05-11T00:02:20.825Z,8.43
2018-05-11T00:04:55.148Z,8.07
2018-05-11T00:07:29.439Z,7.90
2018-05-11T00:10:03.936Z,8.03
2018-05-11T00:12:38.336Z,8.00
2018-05-11T00:15:12.680Z,8.80
2018-05-11T00:17:47.805Z,8.00
2018-05-11T00:20:22.456Z,8.80
2018-05-11T00:22:56.944Z,9.30
2018-05-11T00:25:31.385Z,8.50
2018-05-11T00:28:05.680Z,9.00
2018-05-11T00:30:40.752Z,8.97
2018-05-11T00:33:15.056Z,8.87
2018-05-11T00:35:49.379Z,8.37
2018-05-11T00:38:23.980Z,8.17
2018-05-11T00:40:58.293Z,8.53
2018-05-11T00:43:32.655Z,8.37
2018-05-11T00:46:07.000Z,9.77
2018-05-11T00:48:41.308Z,8.30
2018-05-11T00:51:15.776Z,9.40
2018-05-11T00:53:50.095Z,9.03
2018-05-11T00:56:24.820Z,8.80
2018-05-11T00:58:59.176Z,8.83
2018-05-11T01:01:33.497Z,9.97
2018-05-11T01:04:07.982Z,9.70
2018-05-11T01:06:42.322Z,9.60
2018-05-11T01:09:16.643Z,9.03
2018-05-11T01:11:51.162Z,9.10
2018-05-11T01:14:25.485Z,8.60
2018-05-11T01:16:59.847Z,9.23
2018-05-11T01:19:34.924Z,9.80
2018-05-11T01:22:09.230Z,9.57
2018-05-11T01:24:43.776Z,9.80
2018-05-11T01:27:18.204Z,9.60
2018-05-11T01:29:52.612Z,9.93
2018-05-11T01:32:27.037Z,10.43
2018-05-11T01:35:01.461Z,10.40
2018-05-11T01:37:36.569Z,9.83
2018-05-11T01:40:11.027Z,9.73
2018-05-11T01:42:45.416Z,11.20
2018-05-11T01:45:19.762Z,9.63
2018-05-11T01:47:54.135Z,10.70
2018-05-11T01:50:28.422Z,10.03
2018-05-11T01:53:02.720Z,10.30
2018-05-11T01:55:37.120Z,9.67
2018-05-11T01:58:11.467Z,10.53
2018-05-11T02:00:45.871Z,9.70
2018-05-11T02:03:20.337Z,9.73
2018-05-11T02:05:54.693Z,9.30
2018-05-11T02:08:28.982Z,10.07
2018-05-11T02:11:03.351Z,10.50
2018-05-11T02:13:37.789Z,10.90
2018-05-11T02:16:12.250Z,9.10
2018-05-11T02:18:46.589Z,6.50
2018-05-11T02:21:20.932Z,5.87
2018-05-11T02:23:55.375Z,5.23
2018-05-11T02:26:29.952Z,4.67
2018-05-11T02:29:04.235Z,4.47
2018-05-11T02:31:39.280Z,3.93
2018-05-11T02:34:13.869Z,3.67
2018-05-11T02:36:48.276Z,3.70
2018-05-11T02:39:23.389Z,3.80
2018-05-11T02:41:58.624Z,3.20
2018-05-11T02:44:33.085Z,3.60
2018-05-11T02:47:07.972Z,3.27
2018-05-11T02:49:42.445Z,3.83
2018-05-11T02:52:18.265Z,3.30
2018-05-11T02:54:52.724Z,3.27
2018-05-11T02:57:27.829Z,3.33
2018-05-11T03:00:02.297Z,3.60
2018-05-11T03:02:36.682Z,3.47
2018-05-11T03:05:11.102Z,3.10
2018-05-11T03:07:46.316Z,3.17
2018-05-11T03:10:20.650Z,2.97
2018-05-11T03:12:54.996Z,3.80
2018-05-11T03:15:29.285Z,3.20
2018-05-11T03:18:03.691Z,3.40
2018-05-11T03:20:38.063Z,3.43
2018-05-11T03:23:12.546Z,3.33
2018-05-11T03:25:46.932Z,3.50
2018-05-11T03:28:21.425Z,3.40
2018-05-11T03:30:55.947Z,3.53
2018-05-11T03:33:30.225Z,3.60
2018-05-11T03:36:04.700Z,3.20
2018-05-11T03:38:39.166Z,3.50
2018-05-11T03:41:13.553Z,3.13
2018-05-11T03:43:47.957Z,3.60
2018-05-11T03:46:22.463Z,3.40
2018-05-11T03:48:57.005Z,3.03
2018-05-11T03:51:31.489Z,3.40
2018-05-11T03:54:05.925Z,3.20
2018-05-11T03:56:40.454Z,3.33
2018-05-11T03:59:14.825Z,3.13
2018-05-11T04:02:01.168Z,3.83
2018-05-11T04:04:47.351Z,3.57
2018-05-11T04:07:35.188Z,3.90
2018-05-11T04:10:09.496Z,3.43
2018-05-11T04:12:44.029Z,3.57
2018-05-11T04:15:18.571Z,3.90
2018-05-11T04:17:52.865Z,4.37
2018-05-11T04:20:28.725Z,3.60
2018-05-11T04:23:03.030Z,4.00
2018-05-11T04:25:37.468Z,3.90
2018-05-11T04:28:12.517Z,3.63
2018-05-11T04:30:47.752Z,3.40
2018-05-11T04:33:22.158Z,3.30
2018-05-11T04:35:56.477Z,3.10
2018-05-11T04:38:30.902Z,3.60
2018-05-11T04:41:05.272Z,4.10
2018-05-11T04:43:39.673Z,4.00
2018-05-11T04:46:14.040Z,3.70
2018-05-11T04:48:48.391Z,5.57
2018-05-11T04:51:22.705Z,6.10
2018-05-11T04:53:56.999Z,7.07
2018-05-11T04:56:32.031Z,6.30
2018-05-11T04:59:06.457Z,5.80
2018-05-11T05:01:40.838Z,5.80
2018-05-11T05:04:15.310Z,4.50
2018-05-11T05:06:49.760Z,4.27
2018-05-11T05:09:24.149Z,3.90
2018-05-11T05:11:58.566Z,3.73
2018-05-11T05:14:32.884Z,4.07
2018-05-11T05:17:07.226Z,4.10
2018-05-11T05:19:41.586Z,5.33
2018-05-11T05:22:15.864Z,6.77
2018-05-11T05:24:50.445Z,5.30
2018-05-11T05:27:24.878Z,3.43
2018-05-11T05:29:59.210Z,3.73
2018-05-11T05:32:34.305Z,3.77
2018-05-11T05:35:08.605Z,3.80
2018-05-11T05:37:43.109Z,3.87
2018-05-11T05:40:17.626Z,3.87
2018-05-11T05:42:51.904Z,4.23
2018-05-11T05:45:26.164Z,3.90
2018-05-11T05:48:00.691Z,4.90
2018-05-11T05:50:35.254Z,9.07
2018-05-11T05:53:09.606Z,4.20
2018-05-11T05:55:43.888Z,4.40
2018-05-11T05:58:19.052Z,7.37
2018-05-11T06:00:54.188Z,8.67
2018-05-11T06:03:28.608Z,5.27
2018-05-11T06:06:03.164Z,8.73
2018-05-11T06:08:37.668Z,10.23
2018-05-11T06:11:12.210Z,5.03
2018-05-11T06:13:46.830Z,5.73
2018-05-11T06:16:21.101Z,4.67
2018-05-11T06:18:55.604Z,6.50
2018-05-11T06:21:30.792Z,7.37
2018-05-11T06:24:05.202Z,6.00
2018-05-11T06:26:39.669Z,10.17
2018-05-11T06:29:14.778Z,9.53
2018-05-11T06:31:49.208Z,8.43
2018-05-11T06:34:23.529Z,8.83
2018-05-11T06:36:58.547Z,10.83
2018-05-11T06:39:32.889Z,6.77
2018-05-11T06:42:07.290Z,10.20
2018-05-11T06:44:41.542Z,9.43
2018-05-11T06:47:15.965Z,8.87
2018-05-11T06:49:50.259Z,10.27
2018-05-11T06:52:24.751Z,5.80
2018-05-11T06:55:00.001Z,9.87
2018-05-11T06:57:34.616Z,5.10
2018-05-11T07:00:08.973Z,9.67
2018-05-11T07:02:43.476Z,8.17
2018-05-11T07:05:17.789Z,10.37
2018-05-11T07:07:52.226Z,9.93
2018-05-11T07:10:27.444Z,7.23
2018-05-11T07:13:03.812Z,7.10
2018-05-11T07:15:40.089Z,7.40
2018-05-11T07:18:19.281Z,7.40
2018-05-11T07:26:54.608Z,11.33
2018-05-11T07:29:32.292Z,9.73
2018-05-11T07:32:06.718Z,10.50
2018-05-11T07:34:41.245Z,9.47
2018-05-11T07:37:15.873Z,8.87
2018-05-11T07:39:50.288Z,5.73
2018-05-11T07:42:25.317Z,10.53
2018-05-11T07:44:59.821Z,8.40
2018-05-11T07:47:34.258Z,6.40
2018-05-11T07:50:08.596Z,9.13
2018-05-11T07:52:43.088Z,6.50
2018-05-11T07:55:18.310Z,7.00
2018-05-11T07:57:52.782Z,9.77
2018-05-11T08:00:27.866Z,8.77
2018-05-11T08:03:02.450Z,9.27
2018-05-11T08:05:36.832Z,8.47
2018-05-11T08:08:11.268Z,5.90
2018-05-11T08:10:45.581Z,6.13
2018-05-11T08:13:20.024Z,5.10
2018-05-11T08:15:54.917Z,5.33
2018-05-11T08:18:29.272Z,5.13
2018-05-11T08:21:03.665Z,5.27
2018-05-11T08:23:38.053Z,5.27
2018-05-11T08:26:12.624Z,8.97
2018-05-11T08:28:47.738Z,9.07
2018-05-11T08:31:22.191Z,7.40
2018-05-11T08:33:57.288Z,7.27
2018-05-11T08:36:31.762Z,8.87
2018-05-11T08:39:06.160Z,6.87
2018-05-11T08:41:40.456Z,5.20
2018-05-11T08:44:14.916Z,5.63
2018-05-11T08:46:49.427Z,7.90
2018-05-11T08:49:23.845Z,7.57
2018-05-11T08:51:58.273Z,6.00
2018-05-11T08:54:32.744Z,5.20
2018-05-11T08:57:07.066Z,5.03
2018-05-11T08:59:41.358Z,5.03
2018-05-11T09:02:15.844Z,5.23
2018-05-11T09:04:50.220Z,5.60
2018-05-11T09:07:24.863Z,5.63
2018-05-11T09:09:59.284Z,5.07
2018-05-11T09:12:33.652Z,5.33
2018-05-11T09:15:08.077Z,5.17
2018-05-11T09:17:42.592Z,4.90
2018-05-11T09:20:16.876Z,5.13
2018-05-11T09:22:52.018Z,4.57
2018-05-11T09:25:26.436Z,4.83
2018-05-11T09:28:00.792Z,7.00
2018-05-11T09:30:35.888Z,6.07
2018-05-11T09:33:10.220Z,8.60
2018-05-11T09:35:44.693Z,7.73
2018-05-11T09:38:19.020Z,6.20
2018-05-11T09:40:53.431Z,5.77
2018-05-11T09:43:27.849Z,7.90
2018-05-11T09:46:02.640Z,6.30
2018-05-11T09:48:36.924Z,6.63
2018-05-11T09:51:11.358Z,6.43
2018-05-11T09:53:45.769Z,4.70
2018-05-11T09:56:21.222Z,4.60
2018-05-11T09:58:55.562Z,5.13
2018-05-11T10:01:29.808Z,6.93
2018-05-11T10:04:04.119Z,7.47
2018-05-11T10:06:38.361Z,7.87
2018-05-11T10:09:12.836Z,5.83
2018-05-11T10:11:47.475Z,5.17
2018-05-11T10:14:21.973Z,6.33
2018-05-11T10:16:56.291Z,4.90
2018-05-11T10:19:31.337Z,4.63
2018-05-11T10:22:05.755Z,6.30
2018-05-11T10:24:40.181Z,6.33
2018-05-11T10:27:16.017Z,6.20
2018-05-11T10:29:50.452Z,6.20
2018-05-11T10:32:24.759Z,6.07
2018-05-11T10:34:59.025Z,6.23
2018-05-11T10:37:33.359Z,5.23
2018-05-11T10:40:08.549Z,6.73
2018-05-11T10:42:43.176Z,6.00
2018-05-11T10:45:17.515Z,5.90
2018-05-11T10:47:51.925Z,6.33
2018-05-11T10:50:27.026Z,6.73
2018-05-11T10:53:01.493Z,7.30
2018-05-11T10:55:35.863Z,4.73
2018-05-11T10:58:10.324Z,6.03
2018-05-11T11:00:44.642Z,3.40
2018-05-11T11:03:19.077Z,3.50
2018-05-11T11:05:54.171Z,3.53
2018-05-11T11:08:28.744Z,3.87
2018-05-11T11:11:03.145Z,4.03
2018-05-11T11:13:37.719Z,6.13
2018-05-11T11:16:11.914Z,4.43
2018-05-11T11:18:46.317Z,3.83
2018-05-11T11:21:20.869Z,3.70
2018-05-11T11:23:55.352Z,5.53
2018-05-11T11:26:29.672Z,7.03
2018-05-11T11:29:03.938Z,7.23
2018-05-11T11:31:38.374Z,5.43
2018-05-11T11:34:13.475Z,7.63
2018-05-11T11:36:47.756Z,7.87
2018-05-11T11:39:22.076Z,7.60
2018-05-11T11:41:56.666Z,7.77
2018-05-11T11:44:31.141Z,8.23
2018-05-11T11:47:05.412Z,8.60
2018-05-11T11:49:40.573Z,8.57
2018-05-11T11:52:15.220Z,9.03
2018-05-11T11:54:49.716Z,7.27
2018-05-11T11:57:24.033Z,9.83
2018-05-11T11:59:58.651Z,9.37
2018-05-11T12:02:33.175Z,8.77
2018-05-11T12:05:07.665Z,6.70
2018-05-11T12:07:42.041Z,4.60
2018-05-11T12:10:16.354Z,9.90
2018-05-11T12:12:50.650Z,9.97
2018-05-11T12:15:24.994Z,9.00
2018-05-11T12:17:59.460Z,8.80
2018-05-11T12:20:33.820Z,5.83
2018-05-11T12:23:08.304Z,9.40
2018-05-11T12:25:42.710Z,8.37
2018-05-11T12:28:17.074Z,5.23
2018-05-11T12:30:51.521Z,8.90
2018-05-11T12:33:25.815Z,9.97
2018-05-11T12:36:00.350Z,9.33
2018-05-11T12:38:35.567Z,11.00
2018-05-11T12:41:09.897Z,9.73
2018-05-11T12:43:44.455Z,10.40
2018-05-11T12:46:18.944Z,6.13
2018-05-11T12:48:53.276Z,9.90
2018-05-11T12:51:28.204Z,10.63
2018-05-11T12:54:02.623Z,9.77
2018-05-11T12:56:37.065Z,10.70
2018-05-11T12:59:11.668Z,6.03
2018-05-11T13:04:34.985Z,6.57
2018-05-11T13:07:09.597Z,8.70
2018-05-11T13:09:43.885Z,7.43
2018-05-11T13:12:18.233Z,7.90
2018-05-11T13:14:52.621Z,6.67
2018-05-11T13:17:26.977Z,7.20
2018-05-11T13:20:01.355Z,6.83
2018-05-11T13:22:35.692Z,4.80
2018-05-11T13:25:10.072Z,6.97
2018-05-11T13:27:44.363Z,5.77
2018-05-11T13:30:18.752Z,4.27
2018-05-11T13:32:53.121Z,5.27
2018-05-11T13:35:27.403Z,4.30
2018-05-11T13:38:02.555Z,3.83
2018-05-11T13:40:36.869Z,5.50
2018-05-11T13:43:11.400Z,5.00
2018-05-11T13:45:45.729Z,4.93
2018-05-11T13:48:20.818Z,5.57
2018-05-11T13:50:55.091Z,5.57
2018-05-11T13:53:29.409Z,6.57
2018-05-11T13:56:04.691Z,6.20
2018-05-11T13:58:38.935Z,5.80
2018-05-11T14:01:13.340Z,4.77
2018-05-11T14:03:47.648Z,5.60
2018-05-11T14:06:21.973Z,3.97
2018-05-11T14:08:56.287Z,2.87
2018-05-11T14:11:30.865Z,2.70
2018-05-11T14:14:05.240Z,1.80
2018-05-11T14:16:39.609Z,2.70
2018-05-11T14:19:14.077Z,4.00
2018-05-11T14:21:48.532Z,4.83
2018-05-11T14:24:22.862Z,4.43
2018-05-11T14:26:57.467Z,4.43
2018-05-11T14:29:31.816Z,4.40
2018-05-11T14:32:06.256Z,4.40
2018-05-11T14:34:40.499Z,2.60
2018-05-11T14:37:14.776Z,4.70
2018-05-11T14:39:49.870Z,5.60
2018-05-11T14:42:25.026Z,5.27
2018-05-11T14:44:59.437Z,2.00
2018-05-11T14:47:33.855Z,2.60
2018-05-11T14:50:08.200Z,2.30
2018-05-11T14:52:42.624Z,4.07
2018-05-11T14:55:17.037Z,3.30
2018-05-11T14:57:51.436Z,4.47
2018-05-11T15:00:25.745Z,3.60
2018-05-11T15:03:00.088Z,2.83
2018-05-11T15:05:34.451Z,2.63
2018-05-11T15:08:08.722Z,2.10
2018-05-11T15:10:43.053Z,2.40
2018-05-11T15:13:17.676Z,2.57
2018-05-11T15:15:52.074Z,3.23
2018-05-11T15:18:26.510Z,2.20
2018-05-11T15:21:00.836Z,2.77
2018-05-11T15:23:35.167Z,2.53
2018-05-11T15:26:09.481Z,2.53
2018-05-11T15:28:43.809Z,2.60
2018-05-11T15:31:18.410Z,3.00
2018-05-11T15:33:52.693Z,3.43
2018-05-11T15:36:27.032Z,2.97
2018-05-11T15:39:01.346Z,3.10
2018-05-11T15:41:35.781Z,2.73
2018-05-11T15:44:10.089Z,2.00
2018-05-11T15:46:44.513Z,1.43
2018-05-11T15:49:18.967Z,1.70
2018-05-11T15:51:54.063Z,1.40
2018-05-11T15:54:28.487Z,1.50
2018-05-11T15:57:02.930Z,1.50
2018-05-11T15:59:43.674Z,1.70
2018-05-11T16:02:18.003Z,6.77
2018-05-11T16:04:53.150Z,2.97
2018-05-11T16:07:27.680Z,1.80
2018-05-11T16:10:02.005Z,1.60
2018-05-11T16:12:37.257Z,1.10
2018-05-11T16:15:11.658Z,13.43
2018-05-11T16:17:45.954Z,2.97
2018-05-11T16:20:20.575Z,2.97
2018-05-11T16:22:55.128Z,1.60
2018-05-11T16:25:29.404Z,1.27
2018-05-11T16:28:03.940Z,1.20
2018-05-11T16:30:38.377Z,1.80
2018-05-11T16:33:12.912Z,1.30
2018-05-11T16:35:47.273Z,1.60
2018-05-11T16:38:21.724Z,1.90
2018-05-11T16:40:56.966Z,1.73
2018-05-11T16:43:32.094Z,1.87
2018-05-11T16:46:06.564Z,1.60
2018-05-11T16:48:41.179Z,2.00
2018-05-11T16:51:15.492Z,1.83
2018-05-11T16:53:49.951Z,1.70
2018-05-11T16:56:24.376Z,1.87
2018-05-11T16:58:58.868Z,1.83
2018-05-11T17:01:33.279Z,2.70
2018-05-11T17:04:07.901Z,2.27
2018-05-11T17:06:42.306Z,2.50
2018-05-11T17:09:16.712Z,1.80
2018-05-11T17:11:50.995Z,1.87
2018-05-11T17:14:25.321Z,2.10
2018-05-11T17:16:59.644Z,2.13
2018-05-11T17:19:35.989Z,1.93
2018-05-11T17:22:10.501Z,2.20
2018-05-11T17:24:44.908Z,1.73
2018-05-11T17:27:19.225Z,1.83
2018-05-11T17:29:53.545Z,1.33
2018-05-11T17:32:27.944Z,1.50
2018-05-11T17:35:02.350Z,2.03
2018-05-11T17:37:36.693Z,2.00
2018-05-11T17:40:10.958Z,2.30
2018-05-11T17:42:45.368Z,1.90
2018-05-11T17:45:19.763Z,2.07
2018-05-11T17:47:54.084Z,2.17
2018-05-11T17:50:28.378Z,1.87
2018-05-11T17:53:02.706Z,2.27
2018-05-11T17:55:37.031Z,2.37
2018-05-11T17:58:12.260Z,2.50
2018-05-11T18:00:46.697Z,3.10
2018-05-11T18:03:21.991Z,2.93
2018-05-11T18:05:56.307Z,5.27
2018-05-11T18:08:30.786Z,2.97
2018-05-11T18:11:05.199Z,2.90
2018-05-11T18:13:39.528Z,2.73
2018-05-11T18:16:14.631Z,3.07
2018-05-11T18:18:48.956Z,3.00
2018-05-11T18:21:23.494Z,4.00
2018-05-11T18:23:58.046Z,3.50
2018-05-11T18:26:32.329Z,4.40
2018-05-11T18:29:06.614Z,3.67
2018-05-11T18:31:40.966Z,4.00
2018-05-11T18:34:15.390Z,3.50
2018-05-11T18:36:49.816Z,3.93
2018-05-11T18:39:29.243Z,4.83
2018-05-11T18:42:03.772Z,3.67
2018-05-11T18:44:38.184Z,4.30
2018-05-11T18:47:12.485Z,4.20
2018-05-11T18:49:46.818Z,3.50
2018-05-11T18:52:21.131Z,4.33
2018-05-11T18:54:55.530Z,4.07
2018-05-11T18:57:29.827Z,4.00
2018-05-11T19:00:04.133Z,4.10
2018-05-11T19:02:38.502Z,3.63
2018-05-11T19:05:12.982Z,3.80
2018-05-11T19:07:48.887Z,3.90
2018-05-11T19:10:23.255Z,3.40
2018-05-11T19:12:59.450Z,3.50
2018-05-11T19:15:33.817Z,3.27
2018-05-11T19:18:08.191Z,3.53
2018-05-11T19:20:42.546Z,3.50
2018-05-11T19:23:16.809Z,3.77
2018-05-11T19:25:51.177Z,3.73
2018-05-11T19:28:25.518Z,3.60
2018-05-11T19:31:00.039Z,3.80
2018-05-11T19:33:34.432Z,3.67
2018-05-11T19:36:09.096Z,4.50
2018-05-11T19:38:44.502Z,4.40
2018-05-11T19:41:18.834Z,4.10
2018-05-11T19:43:53.154Z,4.50
2018-05-11T19:46:27.475Z,4.73
2018-05-11T19:49:01.893Z,4.43
2018-05-11T19:51:36.164Z,4.87
2018-05-11T19:54:11.555Z,4.83
2018-05-11T19:56:45.724Z,4.73
2018-05-11T19:59:21.815Z,4.40
2018-05-11T20:01:56.964Z,5.37
2018-05-11T20:04:31.338Z,4.97
2018-05-11T20:07:05.746Z,6.53
2018-05-11T20:09:40.237Z,4.90
2018-05-11T20:12:14.593Z,5.37
2018-05-11T20:14:48.956Z,5.90
2018-05-11T20:17:23.294Z,4.97
2018-05-11T20:19:58.616Z,5.43
2018-05-11T20:22:33.070Z,5.97
2018-05-11T20:25:07.465Z,5.93
2018-05-11T20:27:41.887Z,5.63
2018-05-11T20:30:16.215Z,5.93
2018-05-11T20:32:50.648Z,5.67
2018-05-11T20:35:25.849Z,5.77
2018-05-11T20:38:00.392Z,5.30
2018-05-11T20:40:34.727Z,5.40
2018-05-11T20:43:09.032Z,5.57
2018-05-11T20:45:43.454Z,5.47
2018-05-11T20:48:17.724Z,5.63
2018-05-11T20:50:52.056Z,4.90
2018-05-11T20:53:26.525Z,4.83
2018-05-11T20:56:00.881Z,5.53
2018-05-11T20:58:35.470Z,5.87
2018-05-11T21:01:09.827Z,5.60
2018-05-11T21:03:44.180Z,5.93
2018-05-11T21:06:18.528Z,6.20
2018-05-11T21:08:53.032Z,5.43
2018-05-11T21:11:27.506Z,5.90
2018-05-11T21:14:01.863Z,5.37
2018-05-11T21:16:36.406Z,5.70
2018-05-11T21:19:10.889Z,5.80
2018-05-11T21:21:45.329Z,5.27
2018-05-11T21:24:19.756Z,5.93
2018-05-11T21:26:54.089Z,5.90
2018-05-11T21:29:28.408Z,5.47
2018-05-11T21:32:02.882Z,5.53
2018-05-11T21:34:37.232Z,5.77
2018-05-11T21:37:11.521Z,5.60
2018-05-11T21:39:45.906Z,6.03
2018-05-11T21:42:20.161Z,5.63
2018-05-11T21:44:54.720Z,6.50
2018-05-11T21:47:29.159Z,5.80
2018-05-11T21:50:03.631Z,5.33
2018-05-11T21:52:37.961Z,6.27
2018-05-11T21:55:12.325Z,5.53
2018-05-11T21:57:46.675Z,6.80
2018-05-11T22:00:21.121Z,6.33
2018-05-11T22:02:55.451Z,6.23
2018-05-11T22:05:30.114Z,6.87
2018-05-11T22:08:05.927Z,6.47
2018-05-11T22:10:40.469Z,6.53
2018-05-11T22:13:14.979Z,6.13
2018-05-11T22:15:49.532Z,6.40
2018-05-11T22:18:23.803Z,6.40
2018-05-11T22:20:58.361Z,6.20
2018-05-11T22:23:32.811Z,6.07
2018-05-11T22:26:07.087Z,6.20
2018-05-11T22:28:41.394Z,6.97
2018-05-11T22:31:15.746Z,6.60
2018-05-11T22:33:50.053Z,6.70
2018-05-11T22:36:25.409Z,6.90
2018-05-11T22:38:59.816Z,6.70
2018-05-11T22:41:34.240Z,6.57
2018-05-11T22:44:08.548Z,6.50
2018-05-11T22:46:43.671Z,6.73
2018-05-11T22:49:18.152Z,6.70
2018-05-11T22:51:52.619Z,6.43
2018-05-11T22:54:27.279Z,6.67
2018-05-11T22:57:01.779Z,6.70
2018-05-11T22:59:36.114Z,6.53
2018-05-11T23:02:10.464Z,7.10
2018-05-11T23:04:44.809Z,7.27
2018-05-11T23:07:19.362Z,6.73
2018-05-11T23:09:53.875Z,6.77
2018-05-11T23:12:28.290Z,6.83
2018-05-11T23:15:02.691Z,6.37
2018-05-11T23:17:36.961Z,6.43
2018-05-11T23:20:11.472Z,8.07
2018-05-11T23:22:45.929Z,6.70
2018-05-11T23:25:20.302Z,7.10
2018-05-11T23:27:54.809Z,6.90
2018-05-11T23:30:29.974Z,7.07
2018-05-11T23:33:04.306Z,6.60
2018-05-11T23:35:38.711Z,7.00
2018-05-11T23:38:13.228Z,6.80
2018-05-11T23:40:47.750Z,5.97
2018-05-11T23:43:22.051Z,6.70
2018-05-11T23:45:56.404Z,7.43
2018-05-11T23:48:30.790Z,7.10
2018-05-11T23:51:05.331Z,7.13
2018-05-11T23:53:39.598Z,6.53
2018-05-11T23:56:14.045Z,7.07
2018-05-11T23:58:49.108Z,6.80
